Charter Quote
Worldwide +1-877-727-2538 Call
Select Language Lang
SAFETY RELIABILITY EXPERIENCE

Private Jet Charter Services - Jinan (ZSJN)

Paramount Business Jets offers private jet charter flights and luxury airliner charters to and from Jinan.

AIRPORT INFORMATION
ICAOZSJN
LOCATIONJinan, China
FACILITY TYPEAIRPORT

At Paramount Business Jets you can hire chartered private jets to and from Jinan with as little as 4 hours of notice. All flights booked via Paramount Business Jets are operated by certified direct air carriers that meet and exceed the FAA part 135 and 121 protocol or a foreign equivalent safety authority. Furthermore, Paramount Business Jets subscribes to ARGUS for their third party safety checks of operators, aircraft, and crews prior each and every flight to and from Jinan and worldwide.

  • Quote a trip using Jinan or call us 24/7 - 365 days a year at +1-877-727-2538.
Questions? Call +1-877-727-2538

METAR Weather Data at Jinan, ZSJN

STATIONZSJN
OBSERVEDSun Jul 14, 19:15 UTC
NOWMon Jul 22, 09:36 UTC
AGE182:21 hr ago
WINDvaries at 2 mph
VISIBILITY8 miles
CONDITIONSmist
CLOUDSmostly cloudy
TEMP73°F (23°C)
DEWPT70°F (21°C)
HUMIDITY89%
BAROMETER1003 hPa (29.62 in Hg)
METARZSJN 141915Z VRB01MPS 5000 BR FEW030CB BKN050 23/21 Q1003 RETS NOSIG

Call us on +1-877-727-2538 (24 Hours) to Hire a Private Jet or Get a Quick Quote.

Find Airports Near any Location

Processing
...